sensor_id;sensor_type;location;lat;lon;timestamp;temperature;humidity
14138;DHT22;8199;51.310;9.466;2024-01-10T00:01:17;24.00;40.00
14138;DHT22;8199;51.310;9.466;2024-01-10T00:03:43;24.00;40.00
14138;DHT22;8199;51.310;9.466;2024-01-10T00:06:09;24.00;40.00
14138;DHT22;8199;51.310;9.466;2024-01-10T00:08:35;24.00;40.20
14138;DHT22;8199;51.310;9.466;2024-01-10T00:11:01;24.00;40.40
14138;DHT22;8199;51.310;9.466;2024-01-10T00:13:26;24.10;40.50
14138;DHT22;8199;51.310;9.466;2024-01-10T00:15:53;24.20;40.40
14138;DHT22;8199;51.310;9.466;2024-01-10T00:18:18;24.20;40.40
14138;DHT22;8199;51.310;9.466;2024-01-10T00:20:44;24.20;40.40
14138;DHT22;8199;51.310;9.466;2024-01-10T00:23:10;24.20;40.40
14138;DHT22;8199;51.310;9.466;2024-01-10T00:25:35;24.20;40.50
14138;DHT22;8199;51.310;9.466;2024-01-10T00:28:01;24.10;40.50
14138;DHT22;8199;51.310;9.466;2024-01-10T00:30:26;24.00;40.70
14138;DHT22;8199;51.310;9.466;2024-01-10T00:32:52;24.00;40.60
14138;DHT22;8199;51.310;9.466;2024-01-10T00:35:17;24.00;40.30
14138;DHT22;8199;51.310;9.466;2024-01-10T00:37:43;24.00;40.20
14138;DHT22;8199;51.310;9.466;2024-01-10T00:40:09;23.90;40.20
14138;DHT22;8199;51.310;9.466;2024-01-10T00:42:35;23.90;40.30
14138;DHT22;8199;51.310;9.466;2024-01-10T00:45:01;24.00;40.40
14138;DHT22;8199;51.310;9.466;2024-01-10T00:47:26;24.00;40.30
14138;DHT22;8199;51.310;9.466;2024-01-10T00:49:52;24.00;40.90
14138;DHT22;8199;51.310;9.466;2024-01-10T00:52:17;24.00;40.40
14138;DHT22;8199;51.310;9.466;2024-01-10T00:54:43;24.00;40.50
14138;DHT22;8199;51.310;9.466;2024-01-10T00:57:09;24.00;40.40
14138;DHT22;8199;51.310;9.466;2024-01-10T00:59:35;23.90;40.40
14138;DHT22;8199;51.310;9.466;2024-01-10T01:02:01;23.90;40.60
14138;DHT22;8199;51.310;9.466;2024-01-10T01:04:26;23.90;40.50
14138;DHT22;8199;51.310;9.466;2024-01-10T01:06:52;23.90;40.50
14138;DHT22;8199;51.310;9.466;2024-01-10T01:09:18;24.00;40.60
14138;DHT22;8199;51.310;9.466;2024-01-10T01:11:44;23.90;40.50
14138;DHT22;8199;51.310;9.466;2024-01-10T01:14:10;24.00;40.60
14138;DHT22;8199;51.310;9.466;2024-01-10T01:16:35;24.00;40.60
14138;DHT22;8199;51.310;9.466;2024-01-10T01:19:01;24.00;41.10
14138;DHT22;8199;51.310;9.466;2024-01-10T01:21:26;24.00;40.70
14138;DHT22;8199;51.310;9.466;2024-01-10T01:23:52;24.00;40.60
14138;DHT22;8199;51.310;9.466;2024-01-10T01:26:17;24.10;40.60
14138;DHT22;8199;51.310;9.466;2024-01-10T01:28:43;24.10;40.60
14138;DHT22;8199;51.310;9.466;2024-01-10T01:31:09;24.00;40.60
14138;DHT22;8199;51.310;9.466;2024-01-10T01:33:34;24.00;40.60
14138;DHT22;8199;51.310;9.466;2024-01-10T01:36:00;24.00;40.60
14138;DHT22;8199;51.310;9.466;2024-01-10T01:38:26;24.00;40.60
14138;DHT22;8199;51.310;9.466;2024-01-10T01:40:52;23.90;40.60
14138;DHT22;8199;51.310;9.466;2024-01-10T01:43:25;23.90;40.70
14138;DHT22;8199;51.310;9.466;2024-01-10T01:45:55;23.90;40.70
14138;DHT22;8199;51.310;9.466;2024-01-10T01:48:23;23.90;40.70
14138;DHT22;8199;51.310;9.466;2024-01-10T01:50:51;23.90;40.70
14138;DHT22;8199;51.310;9.466;2024-01-10T01:53:17;23.90;40.80
14138;DHT22;8199;51.310;9.466;2024-01-10T01:55:44;23.90;40.70
14138;DHT22;8199;51.310;9.466;2024-01-10T01:58:11;23.90;40.70
14138;DHT22;8199;51.310;9.466;2024-01-10T02:00:37;23.90;40.80
14138;DHT22;8199;51.310;9.466;2024-01-10T02:03:04;23.90;40.80
14138;DHT22;8199;51.310;9.466;2024-01-10T02:05:30;23.90;40.80
14138;DHT22;8199;51.310;9.466;2024-01-10T02:07:55;23.90;40.90
14138;DHT22;8199;51.310;9.466;2024-01-10T02:10:22;23.90;40.80
14138;DHT22;8199;51.310;9.466;2024-01-10T02:12:48;23.90;40.90
14138;DHT22;8199;51.310;9.466;2024-01-10T02:15:14;23.90;40.80
14138;DHT22;8199;51.310;9.466;2024-01-10T02:17:40;23.90;40.90
14138;DHT22;8199;51.310;9.466;2024-01-10T02:20:12;23.90;40.90
14138;DHT22;8199;51.310;9.466;2024-01-10T02:22:38;23.90;41.00
14138;DHT22;8199;51.310;9.466;2024-01-10T02:25:08;23.90;40.90
14138;DHT22;8199;51.310;9.466;2024-01-10T02:27:35;23.90;40.90
14138;DHT22;8199;51.310;9.466;2024-01-10T02:30:05;24.00;41.00
14138;DHT22;8199;51.310;9.466;2024-01-10T02:32:31;23.90;40.90
14138;DHT22;8199;51.310;9.466;2024-01-10T02:34:58;23.90;40.90
14138;DHT22;8199;51.310;9.466;2024-01-10T02:37:23;23.90;41.00
14138;DHT22;8199;51.310;9.466;2024-01-10T02:39:49;23.90;41.10
14138;DHT22;8199;51.310;9.466;2024-01-10T02:42:15;23.90;41.10
14138;DHT22;8199;51.310;9.466;2024-01-10T02:44:40;23.90;41.10
14138;DHT22;8199;51.310;9.466;2024-01-10T02:47:07;23.90;41.10
14138;DHT22;8199;51.310;9.466;2024-01-10T02:49:33;23.90;41.10
14138;DHT22;8199;51.310;9.466;2024-01-10T02:51:58;23.90;41.10
14138;DHT22;8199;51.310;9.466;2024-01-10T02:54:24;23.90;41.10
14138;DHT22;8199;51.310;9.466;2024-01-10T02:56:50;23.80;41.00
14138;DHT22;8199;51.310;9.466;2024-01-10T02:59:15;23.90;41.10
14138;DHT22;8199;51.310;9.466;2024-01-10T03:01:41;23.80;41.10
14138;DHT22;8199;51.310;9.466;2024-01-10T03:04:06;23.80;41.10
14138;DHT22;8199;51.310;9.466;2024-01-10T03:06:32;23.90;41.10
14138;DHT22;8199;51.310;9.466;2024-01-10T03:08:57;23.80;41.10
14138;DHT22;8199;51.310;9.466;2024-01-10T03:11:23;23.80;41.10
14138;DHT22;8199;51.310;9.466;2024-01-10T03:13:52;23.80;41.10
14138;DHT22;8199;51.310;9.466;2024-01-10T03:16:19;23.90;41.00
14138;DHT22;8199;51.310;9.466;2024-01-10T03:18:45;23.90;41.00
14138;DHT22;8199;51.310;9.466;2024-01-10T03:21:11;23.90;41.00
14138;DHT22;8199;51.310;9.466;2024-01-10T03:23:37;23.90;41.10
14138;DHT22;8199;51.310;9.466;2024-01-10T03:26:02;23.80;41.00
14138;DHT22;8199;51.310;9.466;2024-01-10T03:28:28;23.90;41.10
14138;DHT22;8199;51.310;9.466;2024-01-10T03:30:53;23.90;41.00
14138;DHT22;8199;51.310;9.466;2024-01-10T03:33:19;23.80;41.50
14138;DHT22;8199;51.310;9.466;2024-01-10T03:35:44;23.80;41.00
14138;DHT22;8199;51.310;9.466;2024-01-10T03:38:10;23.80;41.00
14138;DHT22;8199;51.310;9.466;2024-01-10T03:40:36;23.80;41.10
14138;DHT22;8199;51.310;9.466;2024-01-10T03:43:01;23.80;41.10
14138;DHT22;8199;51.310;9.466;2024-01-10T03:45:27;23.90;41.10
14138;DHT22;8199;51.310;9.466;2024-01-10T03:47:53;23.80;41.10
14138;DHT22;8199;51.310;9.466;2024-01-10T03:50:19;23.80;41.10
14138;DHT22;8199;51.310;9.466;2024-01-10T03:52:45;23.80;41.10
14138;DHT22;8199;51.310;9.466;2024-01-10T03:55:14;23.80;41.10
14138;DHT22;8199;51.310;9.466;2024-01-10T03:57:41;23.80;41.20
14138;DHT22;8199;51.310;9.466;2024-01-10T04:00:08;23.80;41.10
14138;DHT22;8199;51.310;9.466;2024-01-10T04:02:36;23.80;41.10
14138;DHT22;8199;51.310;9.466;2024-01-10T04:05:02;23.80;41.20
14138;DHT22;8199;51.310;9.466;2024-01-10T04:07:28;23.80;41.20
14138;DHT22;8199;51.310;9.466;2024-01-10T04:09:53;23.80;41.10
14138;DHT22;8199;51.310;9.466;2024-01-10T04:12:19;23.80;41.10
14138;DHT22;8199;51.310;9.466;2024-01-10T04:14:44;23.80;41.10
14138;DHT22;8199;51.310;9.466;2024-01-10T04:17:10;23.80;41.10
14138;DHT22;8199;51.310;9.466;2024-01-10T04:19:36;23.80;41.10
14138;DHT22;8199;51.310;9.466;2024-01-10T04:22:01;23.80;41.10
14138;DHT22;8199;51.310;9.466;2024-01-10T04:24:27;23.80;41.10
14138;DHT22;8199;51.310;9.466;2024-01-10T04:26:52;23.80;41.20
14138;DHT22;8199;51.310;9.466;2024-01-10T04:29:18;23.80;41.10
14138;DHT22;8199;51.310;9.466;2024-01-10T04:31:43;23.80;41.10
14138;DHT22;8199;51.310;9.466;2024-01-10T04:34:09;23.80;41.60
14138;DHT22;8199;51.310;9.466;2024-01-10T04:36:34;23.80;41.10
14138;DHT22;8199;51.310;9.466;2024-01-10T04:39:00;23.80;41.10
14138;DHT22;8199;51.310;9.466;2024-01-10T04:41:26;23.80;41.10
14138;DHT22;8199;51.310;9.466;2024-01-10T04:43:51;23.80;41.10
14138;DHT22;8199;51.310;9.466;2024-01-10T04:46:17;23.80;41.10
14138;DHT22;8199;51.310;9.466;2024-01-10T04:48:42;23.80;41.10
14138;DHT22;8199;51.310;9.466;2024-01-10T04:51:08;23.80;41.20
14138;DHT22;8199;51.310;9.466;2024-01-10T04:53:34;23.80;41.20
14138;DHT22;8199;51.310;9.466;2024-01-10T04:55:59;23.80;41.20
14138;DHT22;8199;51.310;9.466;2024-01-10T04:58:25;23.80;41.20
14138;DHT22;8199;51.310;9.466;2024-01-10T05:00:51;23.80;41.20
14138;DHT22;8199;51.310;9.466;2024-01-10T05:03:16;23.80;41.20
14138;DHT22;8199;51.310;9.466;2024-01-10T05:05:42;23.80;41.20
14138;DHT22;8199;51.310;9.466;2024-01-10T05:08:08;23.80;41.10
14138;DHT22;8199;51.310;9.466;2024-01-10T05:10:33;23.80;41.40
14138;DHT22;8199;51.310;9.466;2024-01-10T05:12:59;23.80;41.10
14138;DHT22;8199;51.310;9.466;2024-01-10T05:15:24;23.80;41.10
14138;DHT22;8199;51.310;9.466;2024-01-10T05:17:50;23.80;41.10
14138;DHT22;8199;51.310;9.466;2024-01-10T05:20:16;23.80;41.20
14138;DHT22;8199;51.310;9.466;2024-01-10T05:22:42;23.80;41.20
14138;DHT22;8199;51.310;9.466;2024-01-10T05:25:08;23.80;41.20
14138;DHT22;8199;51.310;9.466;2024-01-10T05:27:33;23.80;41.20
14138;DHT22;8199;51.310;9.466;2024-01-10T05:29:59;23.80;41.30
14138;DHT22;8199;51.310;9.466;2024-01-10T05:32:25;23.80;41.30
14138;DHT22;8199;51.310;9.466;2024-01-10T05:34:52;23.80;41.30
14138;DHT22;8199;51.310;9.466;2024-01-10T05:37:18;23.70;41.30
14138;DHT22;8199;51.310;9.466;2024-01-10T05:39:43;23.80;41.30
14138;DHT22;8199;51.310;9.466;2024-01-10T05:42:09;23.80;41.20
14138;DHT22;8199;51.310;9.466;2024-01-10T05:44:34;23.90;41.20
14138;DHT22;8199;51.310;9.466;2024-01-10T05:47:00;23.80;41.30
14138;DHT22;8199;51.310;9.466;2024-01-10T05:49:26;23.80;41.30
14138;DHT22;8199;51.310;9.466;2024-01-10T05:51:51;23.90;41.40
14138;DHT22;8199;51.310;9.466;2024-01-10T05:54:17;24.00;41.40
14138;DHT22;8199;51.310;9.466;2024-01-10T05:56:43;24.00;41.90
14138;DHT22;8199;51.310;9.466;2024-01-10T05:59:09;23.90;41.70
14138;DHT22;8199;51.310;9.466;2024-01-10T06:01:37;23.90;41.80
14138;DHT22;8199;51.310;9.466;2024-01-10T06:04:04;23.80;41.90
14138;DHT22;8199;51.310;9.466;2024-01-10T06:06:31;23.90;41.90
14138;DHT22;8199;51.310;9.466;2024-01-10T06:08:57;23.80;42.00
14138;DHT22;8199;51.310;9.466;2024-01-10T06:11:23;23.80;41.90
14138;DHT22;8199;51.310;9.466;2024-01-10T06:13:49;23.80;41.90
14138;DHT22;8199;51.310;9.466;2024-01-10T06:16:14;23.80;41.90
14138;DHT22;8199;51.310;9.466;2024-01-10T06:18:40;23.80;41.90
14138;DHT22;8199;51.310;9.466;2024-01-10T06:21:05;23.80;42.00
14138;DHT22;8199;51.310;9.466;2024-01-10T06:23:31;23.80;41.80
14138;DHT22;8199;51.310;9.466;2024-01-10T06:25:56;23.80;41.20
14138;DHT22;8199;51.310;9.466;2024-01-10T06:28:22;23.80;40.80
14138;DHT22;8199;51.310;9.466;2024-01-10T06:30:49;23.70;40.70
14138;DHT22;8199;51.310;9.466;2024-01-10T06:33:14;23.70;40.70
14138;DHT22;8199;51.310;9.466;2024-01-10T06:35:41;23.80;40.40
14138;DHT22;8199;51.310;9.466;2024-01-10T06:38:09;23.80;40.40
14138;DHT22;8199;51.310;9.466;2024-01-10T06:40:34;23.70;40.30
14138;DHT22;8199;51.310;9.466;2024-01-10T06:43:00;23.70;40.40
14138;DHT22;8199;51.310;9.466;2024-01-10T06:45:26;23.60;40.60
14138;DHT22;8199;51.310;9.466;2024-01-10T06:47:52;23.60;40.50
14138;DHT22;8199;51.310;9.466;2024-01-10T06:50:17;23.60;40.60
14138;DHT22;8199;51.310;9.466;2024-01-10T06:52:45;23.70;40.70
14138;DHT22;8199;51.310;9.466;2024-01-10T06:55:10;23.70;40.80
14138;DHT22;8199;51.310;9.466;2024-01-10T06:57:36;23.60;40.80
14138;DHT22;8199;51.310;9.466;2024-01-10T07:00:02;23.70;40.80
14138;DHT22;8199;51.310;9.466;2024-01-10T07:02:31;23.70;40.90
14138;DHT22;8199;51.310;9.466;2024-01-10T07:04:57;23.70;40.90
14138;DHT22;8199;51.310;9.466;2024-01-10T07:07:23;23.70;41.00
14138;DHT22;8199;51.310;9.466;2024-01-10T07:09:49;23.70;41.00
14138;DHT22;8199;51.310;9.466;2024-01-10T07:12:14;23.70;41.00
14138;DHT22;8199;51.310;9.466;2024-01-10T07:14:40;23.70;41.10
14138;DHT22;8199;51.310;9.466;2024-01-10T07:17:06;23.70;41.00
14138;DHT22;8199;51.310;9.466;2024-01-10T07:19:32;23.90;40.70
14138;DHT22;8199;51.310;9.466;2024-01-10T07:21:57;23.90;40.60
14138;DHT22;8199;51.310;9.466;2024-01-10T07:24:23;23.90;40.40
14138;DHT22;8199;51.310;9.466;2024-01-10T07:26:48;23.80;40.60
14138;DHT22;8199;51.310;9.466;2024-01-10T07:29:14;23.60;40.80
14138;DHT22;8199;51.310;9.466;2024-01-10T07:31:40;23.60;40.80
14138;DHT22;8199;51.310;9.466;2024-01-10T07:34:05;23.60;40.80
14138;DHT22;8199;51.310;9.466;2024-01-10T07:36:32;23.60;40.80
14138;DHT22;8199;51.310;9.466;2024-01-10T07:39:01;23.60;40.80
14138;DHT22;8199;51.310;9.466;2024-01-10T07:41:27;23.70;40.80
14138;DHT22;8199;51.310;9.466;2024-01-10T07:43:52;23.70;40.80
14138;DHT22;8199;51.310;9.466;2024-01-10T07:46:21;23.70;40.90
14138;DHT22;8199;51.310;9.466;2024-01-10T07:48:47;23.60;41.00
14138;DHT22;8199;51.310;9.466;2024-01-10T07:51:13;23.60;41.00
14138;DHT22;8199;51.310;9.466;2024-01-10T07:53:38;23.60;41.00
14138;DHT22;8199;51.310;9.466;2024-01-10T07:56:04;23.70;41.00
14138;DHT22;8199;51.310;9.466;2024-01-10T07:58:30;23.70;41.00
14138;DHT22;8199;51.310;9.466;2024-01-10T08:00:55;23.70;41.00
14138;DHT22;8199;51.310;9.466;2024-01-10T08:03:21;23.80;41.00
14138;DHT22;8199;51.310;9.466;2024-01-10T08:05:46;23.80;40.90
14138;DHT22;8199;51.310;9.466;2024-01-10T08:08:12;23.80;40.90
14138;DHT22;8199;51.310;9.466;2024-01-10T08:10:39;23.80;40.90
14138;DHT22;8199;51.310;9.466;2024-01-10T08:13:05;23.80;40.90
14138;DHT22;8199;51.310;9.466;2024-01-10T08:15:31;23.80;40.90
14138;DHT22;8199;51.310;9.466;2024-01-10T08:18:00;23.80;40.80
14138;DHT22;8199;51.310;9.466;2024-01-10T08:20:26;23.80;40.80
14138;DHT22;8199;51.310;9.466;2024-01-10T08:22:51;23.80;40.70
14138;DHT22;8199;51.310;9.466;2024-01-10T08:25:18;23.80;40.80
14138;DHT22;8199;51.310;9.466;2024-01-10T08:27:44;23.80;40.70
14138;DHT22;8199;51.310;9.466;2024-01-10T08:30:10;23.80;40.70
14138;DHT22;8199;51.310;9.466;2024-01-10T08:32:36;23.80;40.60
14138;DHT22;8199;51.310;9.466;2024-01-10T08:35:03;23.80;40.70
14138;DHT22;8199;51.310;9.466;2024-01-10T08:37:30;23.80;40.70
14138;DHT22;8199;51.310;9.466;2024-01-10T08:39:56;23.80;40.70
14138;DHT22;8199;51.310;9.466;2024-01-10T08:42:22;23.70;40.70
14138;DHT22;8199;51.310;9.466;2024-01-10T08:44:47;23.80;40.80
14138;DHT22;8199;51.310;9.466;2024-01-10T08:47:13;23.70;40.80
14138;DHT22;8199;51.310;9.466;2024-01-10T08:49:39;23.80;40.80
14138;DHT22;8199;51.310;9.466;2024-01-10T08:52:05;23.80;40.70
14138;DHT22;8199;51.310;9.466;2024-01-10T08:54:30;23.90;40.60
14138;DHT22;8199;51.310;9.466;2024-01-10T08:56:56;24.00;40.50
14138;DHT22;8199;51.310;9.466;2024-01-10T08:59:22;24.00;40.40
14138;DHT22;8199;51.310;9.466;2024-01-10T09:01:47;24.10;40.30
14138;DHT22;8199;51.310;9.466;2024-01-10T09:04:13;24.20;40.20
14138;DHT22;8199;51.310;9.466;2024-01-10T09:06:38;24.50;39.90
14138;DHT22;8199;51.310;9.466;2024-01-10T09:09:04;25.10;39.40
14138;DHT22;8199;51.310;9.466;2024-01-10T09:11:30;25.40;39.00
14138;DHT22;8199;51.310;9.466;2024-01-10T09:13:56;25.60;38.60
14138;DHT22;8199;51.310;9.466;2024-01-10T09:16:21;25.80;38.50
14138;DHT22;8199;51.310;9.466;2024-01-10T09:18:47;26.00;38.20
14138;DHT22;8199;51.310;9.466;2024-01-10T09:21:15;26.10;38.10
14138;DHT22;8199;51.310;9.466;2024-01-10T09:23:40;26.10;37.90
14138;DHT22;8199;51.310;9.466;2024-01-10T09:26:07;25.50;38.20
14138;DHT22;8199;51.310;9.466;2024-01-10T09:28:34;25.00;38.70
14138;DHT22;8199;51.310;9.466;2024-01-10T09:30:59;24.80;39.10
14138;DHT22;8199;51.310;9.466;2024-01-10T09:33:25;24.60;39.40
14138;DHT22;8199;51.310;9.466;2024-01-10T09:35:50;24.40;39.60
14138;DHT22;8199;51.310;9.466;2024-01-10T09:38:16;24.40;39.80
14138;DHT22;8199;51.310;9.466;2024-01-10T09:40:42;24.30;39.90
14138;DHT22;8199;51.310;9.466;2024-01-10T09:43:08;24.20;40.10
14138;DHT22;8199;51.310;9.466;2024-01-10T09:45:43;24.10;40.20
14138;DHT22;8199;51.310;9.466;2024-01-10T09:48:13;24.00;40.30
14138;DHT22;8199;51.310;9.466;2024-01-10T09:50:39;24.00;40.40
14138;DHT22;8199;51.310;9.466;2024-01-10T09:53:06;24.00;40.40
14138;DHT22;8199;51.310;9.466;2024-01-10T09:55:36;24.00;40.40
14138;DHT22;8199;51.310;9.466;2024-01-10T09:58:05;24.00;40.40
14138;DHT22;8199;51.310;9.466;2024-01-10T10:00:33;24.00;40.40
14138;DHT22;8199;51.310;9.466;2024-01-10T10:03:00;24.10;40.50
14138;DHT22;8199;51.310;9.466;2024-01-10T10:05:27;24.10;40.40
14138;DHT22;8199;51.310;9.466;2024-01-10T10:07:53;24.00;40.50
14138;DHT22;8199;51.310;9.466;2024-01-10T10:10:19;24.00;40.60
14138;DHT22;8199;51.310;9.466;2024-01-10T10:12:46;24.00;40.60
14138;DHT22;8199;51.310;9.466;2024-01-10T10:15:14;24.00;40.60
14138;DHT22;8199;51.310;9.466;2024-01-10T10:17:40;24.00;40.60
14138;DHT22;8199;51.310;9.466;2024-01-10T10:20:22;24.00;40.60
14138;DHT22;8199;51.310;9.466;2024-01-10T10:25:36;24.00;40.60
14138;DHT22;8199;51.310;9.466;2024-01-10T10:28:04;24.00;40.60
14138;DHT22;8199;51.310;9.466;2024-01-10T10:30:31;24.00;40.40
14138;DHT22;8199;51.310;9.466;2024-01-10T10:32:58;24.10;40.40
14138;DHT22;8199;51.310;9.466;2024-01-10T10:35:23;24.00;40.30
14138;DHT22;8199;51.310;9.466;2024-01-10T10:37:54;24.00;40.40
14138;DHT22;8199;51.310;9.466;2024-01-10T10:40:20;24.00;40.40
14138;DHT22;8199;51.310;9.466;2024-01-10T10:42:56;24.00;40.50
14138;DHT22;8199;51.310;9.466;2024-01-10T10:45:23;24.00;40.50
14138;DHT22;8199;51.310;9.466;2024-01-10T10:47:58;24.00;40.60
14138;DHT22;8199;51.310;9.466;2024-01-10T10:50:28;24.00;40.60
14138;DHT22;8199;51.310;9.466;2024-01-10T10:52:55;24.00;40.60
14138;DHT22;8199;51.310;9.466;2024-01-10T10:55:22;24.00;40.70
14138;DHT22;8199;51.310;9.466;2024-01-10T10:57:49;24.00;40.70
14138;DHT22;8199;51.310;9.466;2024-01-10T11:00:21;24.00;40.80
14138;DHT22;8199;51.310;9.466;2024-01-10T11:02:53;24.00;40.80
14138;DHT22;8199;51.310;9.466;2024-01-10T11:05:20;24.00;40.80
14138;DHT22;8199;51.310;9.466;2024-01-10T11:07:45;24.00;40.80
14138;DHT22;8199;51.310;9.466;2024-01-10T11:10:28;24.00;40.80
14138;DHT22;8199;51.310;9.466;2024-01-10T11:13:26;24.00;40.70
14138;DHT22;8199;51.310;9.466;2024-01-10T11:21:37;24.00;40.70
14138;DHT22;8199;51.310;9.466;2024-01-10T11:24:09;24.00;40.70
14138;DHT22;8199;51.310;9.466;2024-01-10T11:26:37;24.00;40.60
14138;DHT22;8199;51.310;9.466;2024-01-10T11:29:04;24.00;40.60
14138;DHT22;8199;51.310;9.466;2024-01-10T11:31:31;24.10;40.60
14138;DHT22;8199;51.310;9.466;2024-01-10T11:33:59;24.00;41.00
14138;DHT22;8199;51.310;9.466;2024-01-10T11:36:25;24.00;40.50
14138;DHT22;8199;51.310;9.466;2024-01-10T11:41:38;24.00;40.60
14138;DHT22;8199;51.310;9.466;2024-01-10T11:46:41;24.00;40.70
14138;DHT22;8199;51.310;9.466;2024-01-10T11:49:10;24.00;40.70
14138;DHT22;8199;51.310;9.466;2024-01-10T11:51:42;24.00;40.80
14138;DHT22;8199;51.310;9.466;2024-01-10T11:54:08;24.00;40.80
14138;DHT22;8199;51.310;9.466;2024-01-10T11:56:42;24.10;40.80
14138;DHT22;8199;51.310;9.466;2024-01-10T11:59:14;24.10;40.70
14138;DHT22;8199;51.310;9.466;2024-01-10T12:01:42;24.10;40.70
14138;DHT22;8199;51.310;9.466;2024-01-10T12:04:08;24.10;40.70
14138;DHT22;8199;51.310;9.466;2024-01-10T12:06:35;24.10;41.20
14138;DHT22;8199;51.310;9.466;2024-01-10T12:09:02;24.10;40.60
14138;DHT22;8199;51.310;9.466;2024-01-10T12:11:36;24.10;40.70
14138;DHT22;8199;51.310;9.466;2024-01-10T12:14:04;24.10;40.70
14138;DHT22;8199;51.310;9.466;2024-01-10T12:16:32;24.10;40.60
14138;DHT22;8199;51.310;9.466;2024-01-10T12:18:57;24.20;40.60
14138;DHT22;8199;51.310;9.466;2024-01-10T12:21:23;24.20;40.60
14138;DHT22;8199;51.310;9.466;2024-01-10T12:23:48;24.10;40.60
14138;DHT22;8199;51.310;9.466;2024-01-10T12:26:16;24.00;40.60
14138;DHT22;8199;51.310;9.466;2024-01-10T12:28:57;24.10;40.60
14138;DHT22;8199;51.310;9.466;2024-01-10T12:31:23;24.00;40.60
14138;DHT22;8199;51.310;9.466;2024-01-10T12:33:51;24.00;40.60
14138;DHT22;8199;51.310;9.466;2024-01-10T12:36:18;24.10;40.60
14138;DHT22;8199;51.310;9.466;2024-01-10T12:38:45;24.10;40.60
14138;DHT22;8199;51.310;9.466;2024-01-10T12:41:11;24.10;40.50
14138;DHT22;8199;51.310;9.466;2024-01-10T12:43:37;24.00;40.60
14138;DHT22;8199;51.310;9.466;2024-01-10T12:46:07;24.00;40.70
14138;DHT22;8199;51.310;9.466;2024-01-10T12:48:33;24.00;40.80
14138;DHT22;8199;51.310;9.466;2024-01-10T12:51:02;23.90;40.80
14138;DHT22;8199;51.310;9.466;2024-01-10T12:53:33;23.90;40.90
14138;DHT22;8199;51.310;9.466;2024-01-10T12:55:59;24.00;40.90
14138;DHT22;8199;51.310;9.466;2024-01-10T12:58:24;24.00;40.80
14138;DHT22;8199;51.310;9.466;2024-01-10T13:00:50;24.10;40.70
14138;DHT22;8199;51.310;9.466;2024-01-10T13:03:15;24.10;40.70
14138;DHT22;8199;51.310;9.466;2024-01-10T13:05:41;24.10;40.60
14138;DHT22;8199;51.310;9.466;2024-01-10T13:08:07;24.10;40.60
14138;DHT22;8199;51.310;9.466;2024-01-10T13:10:33;24.10;40.60
14138;DHT22;8199;51.310;9.466;2024-01-10T13:12:58;24.10;40.60
14138;DHT22;8199;51.310;9.466;2024-01-10T13:15:24;24.10;40.60
14138;DHT22;8199;51.310;9.466;2024-01-10T13:17:49;24.10;40.70
14138;DHT22;8199;51.310;9.466;2024-01-10T13:20:15;24.10;40.70
14138;DHT22;8199;51.310;9.466;2024-01-10T13:22:40;24.00;40.70
14138;DHT22;8199;51.310;9.466;2024-01-10T13:25:06;24.10;40.70
14138;DHT22;8199;51.310;9.466;2024-01-10T13:27:32;24.00;40.70
14138;DHT22;8199;51.310;9.466;2024-01-10T13:29:57;24.10;40.70
14138;DHT22;8199;51.310;9.466;2024-01-10T13:32:23;24.10;40.60
14138;DHT22;8199;51.310;9.466;2024-01-10T13:34:48;24.00;40.60
14138;DHT22;8199;51.310;9.466;2024-01-10T13:37:14;24.00;41.10
14138;DHT22;8199;51.310;9.466;2024-01-10T13:39:42;24.00;40.60
14138;DHT22;8199;51.310;9.466;2024-01-10T13:42:08;24.00;40.70
14138;DHT22;8199;51.310;9.466;2024-01-10T13:44:36;23.90;40.70
14138;DHT22;8199;51.310;9.466;2024-01-10T13:47:01;23.90;40.70
14138;DHT22;8199;51.310;9.466;2024-01-10T13:49:29;23.90;40.80
14138;DHT22;8199;51.310;9.466;2024-01-10T13:51:54;23.90;40.80
14138;DHT22;8199;51.310;9.466;2024-01-10T13:54:20;23.90;40.70
14138;DHT22;8199;51.310;9.466;2024-01-10T13:56:46;23.90;40.70
14138;DHT22;8199;51.310;9.466;2024-01-10T13:59:12;24.00;40.70
14138;DHT22;8199;51.310;9.466;2024-01-10T14:01:38;24.00;40.70
14138;DHT22;8199;51.310;9.466;2024-01-10T14:04:04;24.00;40.70
14138;DHT22;8199;51.310;9.466;2024-01-10T14:06:30;24.00;40.70
14138;DHT22;8199;51.310;9.466;2024-01-10T14:08:55;23.90;40.70
14138;DHT22;8199;51.310;9.466;2024-01-10T14:11:21;23.90;40.80
14138;DHT22;8199;51.310;9.466;2024-01-10T14:13:47;23.90;40.80
14138;DHT22;8199;51.310;9.466;2024-01-10T14:16:13;23.90;40.80
14138;DHT22;8199;51.310;9.466;2024-01-10T14:18:39;23.90;40.80
14138;DHT22;8199;51.310;9.466;2024-01-10T14:21:05;23.90;40.80
14138;DHT22;8199;51.310;9.466;2024-01-10T14:23:30;23.80;40.90
14138;DHT22;8199;51.310;9.466;2024-01-10T14:25:56;23.80;41.40
14138;DHT22;8199;51.310;9.466;2024-01-10T14:28:21;23.80;40.90
14138;DHT22;8199;51.310;9.466;2024-01-10T14:30:47;23.70;40.90
14138;DHT22;8199;51.310;9.466;2024-01-10T14:33:13;23.80;40.90
14138;DHT22;8199;51.310;9.466;2024-01-10T14:35:39;23.70;40.90
14138;DHT22;8199;51.310;9.466;2024-01-10T14:38:05;23.70;40.90
14138;DHT22;8199;51.310;9.466;2024-01-10T14:40:31;23.80;41.00
14138;DHT22;8199;51.310;9.466;2024-01-10T14:42:56;23.80;40.90
14138;DHT22;8199;51.310;9.466;2024-01-10T14:45:22;23.80;40.90
14138;DHT22;8199;51.310;9.466;2024-01-10T14:47:48;23.80;40.90
14138;DHT22;8199;51.310;9.466;2024-01-10T14:50:15;23.70;40.90
14138;DHT22;8199;51.310;9.466;2024-01-10T14:52:40;23.80;41.00
14138;DHT22;8199;51.310;9.466;2024-01-10T14:55:06;23.80;40.90
14138;DHT22;8199;51.310;9.466;2024-01-10T14:57:32;24.00;40.80
14138;DHT22;8199;51.310;9.466;2024-01-10T14:59:58;23.90;40.70
14138;DHT22;8199;51.310;9.466;2024-01-10T15:02:25;23.90;41.00
14138;DHT22;8199;51.310;9.466;2024-01-10T15:04:51;23.80;41.10
14138;DHT22;8199;51.310;9.466;2024-01-10T15:07:16;23.90;41.10
14138;DHT22;8199;51.310;9.466;2024-01-10T15:09:43;24.00;40.80
14138;DHT22;8199;51.310;9.466;2024-01-10T15:12:08;24.00;40.90
14138;DHT22;8199;51.310;9.466;2024-01-10T15:14:35;23.90;41.10
14138;DHT22;8199;51.310;9.466;2024-01-10T15:17:01;23.90;41.10
14138;DHT22;8199;51.310;9.466;2024-01-10T15:19:30;23.90;41.00
14138;DHT22;8199;51.310;9.466;2024-01-10T15:21:57;23.90;40.90
14138;DHT22;8199;51.310;9.466;2024-01-10T15:24:23;23.90;41.00
14138;DHT22;8199;51.310;9.466;2024-01-10T15:26:49;23.80;40.90
14138;DHT22;8199;51.310;9.466;2024-01-10T15:29:15;23.80;40.90
14138;DHT22;8199;51.310;9.466;2024-01-10T15:31:40;23.90;40.80
14138;DHT22;8199;51.310;9.466;2024-01-10T15:34:06;23.90;40.70
14138;DHT22;8199;51.310;9.466;2024-01-10T15:36:32;23.90;40.60
14138;DHT22;8199;51.310;9.466;2024-01-10T15:38:57;23.90;40.60
14138;DHT22;8199;51.310;9.466;2024-01-10T15:41:23;23.90;40.60
14138;DHT22;8199;51.310;9.466;2024-01-10T15:43:48;23.90;40.60
14138;DHT22;8199;51.310;9.466;2024-01-10T15:46:20;23.90;40.60
14138;DHT22;8199;51.310;9.466;2024-01-10T15:48:48;23.90;40.70
14138;DHT22;8199;51.310;9.466;2024-01-10T15:51:14;23.90;40.50
14138;DHT22;8199;51.310;9.466;2024-01-10T15:53:40;23.80;40.40